LFRQ

Quimper-Cornouaille Airport

Airport
ICAO code
LFRQ
IATA Code
UIP
Summary
ICAO Region
EUR
ICAO Territory
Location

, Bretagne

Serving
Quimper
Elevation
297 ft
Coordinates
47° 58' 30" N , 4° 10' 4" W
Metar
Observation
LFRQ 030230Z AUTO 03007KT 9999 FEW022 BKN029 BKN038 05/03 Q1018
Station
Quimper
Date/Time
2022-12-03 02:30:00
Wind direction
30°
Wind speed
07 kts
Lowest cloud amount
few clouds
Temperature
5°C
Dew point
3°C
Humidity
86%
QNH
1018 hPa
Weather condition
n/a

Runways

Designator Length Width Surface Rops
4/22 810 45 ASP No/No
10/28 2150 45 ASP Yes/Yes

Airport map

Aerial View

SKYbrary Partners:

Safety knowledge contributed by: